Time;durP1;ratioP1;P1;durP2;ratioP2;P2;SDS_P1;SDS_P2;PMS_P1;PMS_P2;Temp;Humidity;BMP_temperature;BMP_pressure;BME280_temperature;BME280_humidity;BME280_pressure;Samples;Min_cycle;Max_cycle;Signal;HPM_P1;HPM_P2
2022/10/09 00:00:19;;;;;;;1.50;1.20;;;8.70;98.20;;;;;;5048667;28;20465;-77
2022/10/09 00:02:48;;;;;;;1.50;1.20;;;8.70;98.20;;;;;;5040273;28;20539;-78
2022/10/09 00:05:15;;;;;;;1.50;1.20;;;8.70;98.20;;;;;;5031076;28;21042;-77
2022/10/09 00:07:42;;;;;;;1.50;1.20;;;8.70;98.20;;;;;;5030480;28;20482;-77
2022/10/09 00:10:09;;;;;;;1.50;1.20;;;8.60;98.20;;;;;;5019346;28;20470;-77
2022/10/09 00:12:36;;;;;;;1.50;1.20;;;8.60;98.20;;;;;;5030186;28;20516;-77
2022/10/09 00:15:04;;;;;;;1.50;1.10;;;8.60;98.20;;;;;;5025953;28;20483;-77
2022/10/09 00:17:31;;;;;;;1.57;1.20;;;8.60;98.20;;;;;;5033097;28;20481;-77
2022/10/09 00:20:00;;;;;;;1.50;1.20;;;8.60;98.20;;;;;;5030886;28;20463;-77
2022/10/09 00:22:27;;;;;;;1.50;1.20;;;8.60;98.20;;;;;;5019499;28;20487;-77
2022/10/09 00:24:54;;;;;;;1.50;1.17;;;8.60;98.20;;;;;;5032132;28;20483;-77
2022/10/09 00:27:22;;;;;;;1.57;1.30;;;8.60;98.20;;;;;;5032311;28;20482;-77
2022/10/09 00:29:50;;;;;;;1.53;1.30;;;8.50;98.20;;;;;;5034208;28;20868;-77
2022/10/09 00:32:17;;;;;;;1.57;1.20;;;8.50;98.20;;;;;;5031817;28;20494;-77
2022/10/09 00:34:45;;;;;;;1.50;1.20;;;8.50;98.20;;;;;;5034717;28;20945;-77
2022/10/09 00:37:13;;;;;;;1.50;1.20;;;8.50;98.20;;;;;;5028232;28;20511;-77
2022/10/09 00:39:40;;;;;;;1.60;1.30;;;8.40;98.20;;;;;;5020737;28;20851;-77
2022/10/09 00:42:11;;;;;;;1.53;1.20;;;8.40;98.20;;;;;;5027578;28;20535;-77
2022/10/09 00:44:50;;;;;;;1.53;1.27;;;8.40;98.20;;;;;;5035012;28;20479;-77
2022/10/09 00:47:23;;;;;;;1.53;1.30;;;8.40;98.20;;;;;;5031498;28;20482;-78
2022/10/09 00:49:52;;;;;;;1.53;1.20;;;8.40;98.20;;;;;;5053178;28;20474;-77
2022/10/09 00:52:23;;;;;;;1.57;1.30;;;8.40;98.20;;;;;;5044552;28;20543;-78
2022/10/09 00:54:52;;;;;;;1.50;1.30;;;8.30;98.20;;;;;;5053836;28;20486;-77
2022/10/09 00:57:19;;;;;;;1.60;1.43;;;8.30;98.20;;;;;;5039970;28;20543;-77
2022/10/09 00:59:47;;;;;;;1.57;1.30;;;8.30;98.20;;;;;;5034464;28;20501;-77
2022/10/09 01:02:14;;;;;;;1.57;1.30;;;8.30;98.20;;;;;;5031686;28;20486;-77
2022/10/09 01:04:41;;;;;;;1.53;1.27;;;8.30;98.20;;;;;;5035551;28;20889;-77
2022/10/09 01:07:23;;;;;;;1.57;1.30;;;8.30;98.20;;;;;;5025918;28;20675;-77
2022/10/09 01:09:56;;;;;;;1.53;1.30;;;8.20;98.20;;;;;;5019526;28;20487;-77
2022/10/09 01:15:43;;;;;;;1.50;1.20;;;8.20;98.20;;;;;;5009609;28;20498;-76
2022/10/09 01:18:17;;;;;;;1.53;1.30;;;8.20;98.20;;;;;;5034040;28;20896;-77
2022/10/09 01:20:49;;;;;;;1.53;1.20;;;8.10;98.20;;;;;;5023143;28;20464;-76
2022/10/09 01:23:39;;;;;;;1.53;1.30;;;8.10;98.20;;;;;;5011569;28;20536;-77
2022/10/09 01:26:18;;;;;;;1.57;1.30;;;8.00;98.20;;;;;;5002958;28;20463;-76
2022/10/09 01:28:52;;;;;;;1.50;1.30;;;8.00;98.20;;;;;;5035609;28;20842;-77
2022/10/09 01:31:22;;;;;;;1.57;1.30;;;8.00;98.20;;;;;;5017105;28;20555;-76
2022/10/09 01:33:49;;;;;;;1.53;1.20;;;8.00;98.20;;;;;;5035025;28;20943;-77
2022/10/09 01:36:17;;;;;;;1.60;1.40;;;7.90;98.20;;;;;;5032016;28;20466;-77
2022/10/09 01:38:45;;;;;;;1.60;1.30;;;7.90;98.20;;;;;;5036319;28;20851;-77
2022/10/09 01:41:12;;;;;;;1.53;1.20;;;7.90;98.20;;;;;;5021660;28;20482;-76
2022/10/09 01:43:40;;;;;;;1.53;1.37;;;7.90;98.20;;;;;;5042411;28;20963;-77
2022/10/09 01:46:24;;;;;;;1.50;1.30;;;7.90;98.20;;;;;;5022251;28;20483;-77
2022/10/09 01:49:12;;;;;;;1.57;1.20;;;7.80;98.20;;;;;;5039162;28;20462;-77
2022/10/09 01:51:48;;;;;;;1.60;1.40;;;7.80;98.20;;;;;;5013169;28;20999;-77
2022/10/09 01:54:23;;;;;;;1.50;1.20;;;7.80;98.20;;;;;;5023037;28;20486;-77
2022/10/09 01:56:53;;;;;;;1.60;1.30;;;7.80;98.20;;;;;;5027294;28;20504;-77
2022/10/09 01:59:20;;;;;;;1.53;1.30;;;7.80;98.20;;;;;;5022844;28;20523;-77
2022/10/09 02:01:50;;;;;;;1.53;1.20;;;7.80;98.20;;;;;;5027169;28;21082;-78
2022/10/09 02:04:19;;;;;;;1.53;1.20;;;7.80;98.20;;;;;;5035840;28;20486;-77
2022/10/09 02:06:47;;;;;;;1.50;1.20;;;7.80;98.20;;;;;;5038452;28;20506;-77
2022/10/09 02:09:16;;;;;;;1.57;1.30;;;7.80;98.20;;;;;;5027599;28;20487;-78
2022/10/09 02:11:48;;;;;;;1.60;1.37;;;7.70;98.20;;;;;;5024627;28;20493;-78
2022/10/09 02:14:17;;;;;;;1.50;1.20;;;7.70;98.20;;;;;;5039236;28;20526;-78
2022/10/09 02:16:47;;;;;;;1.50;1.20;;;7.70;98.20;;;;;;5028003;28;20490;-77
2022/10/09 02:19:20;;;;;;;1.57;1.30;;;7.70;98.20;;;;;;5046654;28;20486;-78
2022/10/09 02:21:51;;;;;;;1.50;1.20;;;7.70;98.20;;;;;;5023100;28;20481;-78
2022/10/09 02:24:21;;;;;;;1.50;1.30;;;7.70;98.20;;;;;;5041302;28;20510;-78
2022/10/09 02:26:48;;;;;;;1.50;1.20;;;7.70;98.20;;;;;;5022395;28;20483;-78
2022/10/09 02:29:15;;;;;;;1.60;1.33;;;7.70;98.20;;;;;;5038258;28;20521;-79
2022/10/09 02:31:44;;;;;;;1.53;1.23;;;7.70;98.20;;;;;;5024415;28;20573;-79
2022/10/09 02:34:13;;;;;;;1.53;1.20;;;7.60;98.20;;;;;;5032875;28;20525;-79
2022/10/09 02:36:41;;;;;;;1.60;1.30;;;7.60;98.20;;;;;;5025251;28;21105;-78
2022/10/09 02:39:09;;;;;;;1.57;1.27;;;7.60;98.20;;;;;;5034287;28;20472;-79
2022/10/09 02:41:36;;;;;;;1.57;1.27;;;7.60;98.20;;;;;;5021006;28;20482;-78
2022/10/09 02:44:03;;;;;;;1.50;1.20;;;7.60;98.20;;;;;;5042198;28;20501;-80
2022/10/09 02:46:31;;;;;;;1.60;1.30;;;7.60;98.20;;;;;;5023755;28;21181;-80
2022/10/09 02:48:58;;;;;;;1.50;1.30;;;7.60;98.20;;;;;;5052729;28;20887;-79
2022/10/09 02:51:25;;;;;;;1.50;1.20;;;7.60;98.20;;;;;;5040825;28;20478;-78
2022/10/09 02:53:54;;;;;;;1.63;1.53;;;7.60;98.20;;;;;;5059966;28;20506;-79
2022/10/09 02:56:22;;;;;;;1.53;1.30;;;7.60;98.20;;;;;;5027188;28;20482;-79
2022/10/09 02:58:49;;;;;;;1.50;1.20;;;7.60;98.20;;;;;;5044379;28;20463;-78
2022/10/09 03:01:17;;;;;;;1.53;1.27;;;7.60;98.20;;;;;;5025408;28;20488;-79
2022/10/09 03:03:45;;;;;;;1.60;1.40;;;7.60;98.20;;;;;;5036398;28;20462;-80
2022/10/09 03:06:14;;;;;;;1.50;1.30;;;7.60;98.20;;;;;;5038522;28;20469;-78
2022/10/09 03:08:43;;;;;;;1.53;1.20;;;7.60;98.20;;;;;;5040919;28;20463;-79
2022/10/09 03:11:14;;;;;;;1.50;1.30;;;7.60;98.20;;;;;;5019300;28;20490;-79
2022/10/09 03:13:51;;;;;;;1.50;1.30;;;7.60;98.20;;;;;;5042612;28;20463;-81
2022/10/09 03:16:20;;;;;;;1.60;1.40;;;7.60;98.20;;;;;;5009628;28;20837;-79
2022/10/09 03:18:48;;;;;;;1.60;1.37;;;7.60;98.20;;;;;;5029718;28;20459;-80
2022/10/09 03:21:18;;;;;;;1.93;1.83;;;7.60;98.20;;;;;;5021043;28;20474;-81
2022/10/09 03:23:46;;;;;;;1.57;1.30;;;7.50;98.20;;;;;;5040399;28;20459;-79
2022/10/09 03:26:17;;;;;;;1.60;1.30;;;7.50;98.20;;;;;;5021364;28;20545;-79
2022/10/09 03:28:46;;;;;;;1.60;1.40;;;7.50;98.20;;;;;;5046314;28;20541;-78
2022/10/09 03:31:13;;;;;;;1.50;1.20;;;7.50;98.20;;;;;;5037603;28;21281;-80
2022/10/09 03:33:41;;;;;;;1.60;1.40;;;7.40;98.20;;;;;;5036301;28;20960;-80
2022/10/09 03:36:09;;;;;;;1.57;1.30;;;7.40;98.20;;;;;;5034109;28;20746;-79
2022/10/09 03:38:36;;;;;;;1.60;1.20;;;7.40;98.20;;;;;;5044421;28;20459;-80
2022/10/09 03:41:04;;;;;;;1.57;1.30;;;7.40;98.20;;;;;;5020362;28;20489;-80
2022/10/09 03:43:34;;;;;;;1.50;1.30;;;7.30;98.20;;;;;;5062961;28;20465;-81
2022/10/09 03:46:05;;;;;;;1.53;1.30;;;7.30;98.20;;;;;;5038921;28;20476;-80
2022/10/09 03:48:32;;;;;;;1.50;1.20;;;7.30;98.20;;;;;;5062093;28;20513;-80
2022/10/09 03:50:59;;;;;;;1.57;1.33;;;7.30;98.20;;;;;;5039431;28;20498;-79
2022/10/09 03:53:27;;;;;;;1.50;1.30;;;7.30;98.20;;;;;;5047276;28;20478;-79
2022/10/09 03:55:54;;;;;;;1.50;1.30;;;7.30;98.20;;;;;;5024265;28;20618;-80
2022/10/09 03:58:22;;;;;;;1.60;1.30;;;7.30;98.20;;;;;;5044714;28;21029;-80
2022/10/09 04:00:52;;;;;;;1.60;1.40;;;7.30;98.20;;;;;;5020276;28;20467;-79
2022/10/09 04:03:20;;;;;;;1.60;1.30;;;7.30;98.20;;;;;;5034468;28;20902;-79
2022/10/09 04:05:47;;;;;;;1.57;1.30;;;7.30;98.20;;;;;;5046026;28;20581;-80
2022/10/09 04:08:14;;;;;;;1.50;1.30;;;7.20;98.20;;;;;;5011490;28;20474;-79
2022/10/09 04:10:41;;;;;;;1.50;1.30;;;7.20;98.20;;;;;;5027796;28;20973;-80
2022/10/09 04:13:08;;;;;;;1.50;1.30;;;7.20;98.20;;;;;;5036095;28;20566;-80
2022/10/09 04:15:36;;;;;;;1.50;1.30;;;7.20;98.20;;;;;;5026232;28;20910;-80
2022/10/09 04:18:05;;;;;;;1.60;1.30;;;7.20;98.20;;;;;;5033936;28;20560;-79
2022/10/09 04:20:32;;;;;;;1.53;1.30;;;7.10;98.20;;;;;;5031928;28;21148;-80
2022/10/09 04:22:59;;;;;;;1.60;1.30;;;7.10;98.20;;;;;;5038672;28;21122;-79
2022/10/09 04:25:27;;;;;;;1.53;1.30;;;7.10;98.20;;;;;;5029526;28;20552;-80
2022/10/09 04:27:54;;;;;;;1.50;1.20;;;7.10;98.20;;;;;;5046105;28;20909;-79
2022/10/09 04:30:22;;;;;;;1.50;1.30;;;7.10;98.20;;;;;;5051515;28;20557;-78
2022/10/09 04:32:49;;;;;;;1.53;1.30;;;7.10;98.20;;;;;;5029042;28;20553;-78
2022/10/09 04:35:17;;;;;;;1.60;1.40;;;7.10;98.20;;;;;;5038139;28;20517;-81
2022/10/09 04:37:44;;;;;;;1.60;1.30;;;7.00;98.20;;;;;;5042040;28;20940;-79
2022/10/09 04:40:11;;;;;;;1.50;1.30;;;7.00;98.20;;;;;;5027077;28;20463;-79
2022/10/09 04:42:38;;;;;;;1.57;1.30;;;7.00;98.20;;;;;;5041302;28;20571;-79
2022/10/09 04:45:06;;;;;;;1.53;1.30;;;6.90;98.20;;;;;;5032945;28;20501;-78
2022/10/09 04:47:34;;;;;;;1.60;1.40;;;6.90;98.20;;;;;;5029285;28;20490;-79
2022/10/09 04:50:01;;;;;;;1.50;1.30;;;6.90;98.20;;;;;;5041787;28;20486;-79
2022/10/09 04:52:29;;;;;;;1.57;1.37;;;6.90;98.20;;;;;;5021111;28;20478;-78
2022/10/09 04:54:56;;;;;;;1.50;1.30;;;6.80;98.20;;;;;;5037143;28;20528;-79
2022/10/09 04:57:24;;;;;;;1.53;1.30;;;6.80;98.20;;;;;;5027403;28;20494;-79
2022/10/09 04:59:51;;;;;;;1.57;1.40;;;6.80;98.20;;;;;;5034456;28;20466;-77
2022/10/09 05:02:18;;;;;;;1.57;1.30;;;6.80;98.20;;;;;;5021599;28;20505;-78
2022/10/09 05:04:47;;;;;;;1.57;1.30;;;6.80;98.20;;;;;;5032302;28;20478;-77
2022/10/09 05:07:14;;;;;;;1.53;1.30;;;6.90;98.20;;;;;;5038212;28;20486;-79
2022/10/09 05:09:42;;;;;;;1.50;1.30;;;6.90;98.20;;;;;;5028659;28;20468;-78
2022/10/09 05:12:09;;;;;;;1.50;1.30;;;6.90;98.20;;;;;;5038447;28;20489;-78
2022/10/09 05:14:36;;;;;;;1.50;1.30;;;6.90;98.20;;;;;;5052893;28;20486;-78
2022/10/09 05:17:04;;;;;;;1.53;1.30;;;6.90;98.20;;;;;;5036000;28;20482;-79
2022/10/09 05:19:31;;;;;;;1.50;1.30;;;6.90;98.20;;;;;;5036119;28;20478;-80
2022/10/09 05:22:01;;;;;;;1.53;1.23;;;6.90;98.20;;;;;;5028616;28;20478;-78
2022/10/09 05:24:29;;;;;;;1.50;1.30;;;6.90;98.20;;;;;;5035829;28;20491;-78
2022/10/09 05:26:57;;;;;;;1.53;1.30;;;7.00;98.20;;;;;;5034786;28;20563;-79
2022/10/09 05:29:24;;;;;;;1.53;1.30;;;6.90;98.20;;;;;;5055222;28;20474;-77
2022/10/09 05:31:51;;;;;;;1.60;1.40;;;6.90;98.20;;;;;;5036013;28;20475;-78
2022/10/09 05:34:19;;;;;;;1.50;1.30;;;6.90;98.20;;;;;;5038059;28;20568;-79
2022/10/09 05:36:46;;;;;;;1.50;1.30;;;7.00;98.20;;;;;;5038026;28;20572;-78
2022/10/09 05:39:13;;;;;;;1.60;1.30;;;7.00;98.20;;;;;;5033045;28;21040;-79
2022/10/09 05:41:40;;;;;;;1.60;1.37;;;7.00;98.20;;;;;;5022652;28;20569;-79
2022/10/09 05:44:09;;;;;;;1.53;1.30;;;7.00;98.20;;;;;;5038916;28;20951;-78
2022/10/09 05:46:36;;;;;;;1.60;1.30;;;7.00;98.20;;;;;;5026745;28;20478;-78
2022/10/09 05:49:05;;;;;;;1.50;1.30;;;7.00;98.20;;;;;;5039046;28;20462;-78
2022/10/09 05:51:34;;;;;;;1.57;1.30;;;7.00;98.20;;;;;;5024052;28;20474;-79
2022/10/09 05:54:02;;;;;;;1.60;1.50;;;7.00;98.20;;;;;;5037540;28;20495;-77
2022/10/09 05:56:31;;;;;;;1.50;1.30;;;7.00;98.20;;;;;;5023531;28;20501;-76
2022/10/09 05:59:00;;;;;;;1.50;1.30;;;7.00;98.20;;;;;;5033556;28;20547;-77
2022/10/09 06:01:32;;;;;;;1.57;1.30;;;7.00;98.20;;;;;;5040717;28;20481;-78
2022/10/09 06:04:00;;;;;;;1.50;1.30;;;7.00;98.20;;;;;;5033060;28;20483;-77
2022/10/09 06:06:30;;;;;;;1.53;1.30;;;7.00;98.20;;;;;;5018043;28;20545;-78
2022/10/09 06:08:58;;;;;;;1.50;1.30;;;7.00;98.20;;;;;;5036197;28;20460;-79
2022/10/09 06:11:27;;;;;;;1.53;1.40;;;7.00;98.20;;;;;;5032470;28;20470;-77
2022/10/09 06:13:56;;;;;;;1.50;1.20;;;7.00;98.20;;;;;;5045600;28;20455;-78
2022/10/09 06:16:25;;;;;;;1.57;1.30;;;7.10;98.20;;;;;;5022835;28;21196;-77
2022/10/09 06:18:55;;;;;;;1.50;1.20;;;7.10;98.20;;;;;;5040778;28;20467;-78
2022/10/09 06:21:22;;;;;;;1.60;1.30;;;7.20;98.20;;;;;;5029152;28;20570;-78
2022/10/09 06:23:50;;;;;;;1.57;1.30;;;7.20;98.20;;;;;;5047929;28;20479;-79
2022/10/09 06:26:19;;;;;;;1.50;1.20;;;7.30;98.20;;;;;;5023184;28;20471;-78
2022/10/09 06:28:47;;;;;;;1.50;1.30;;;7.30;98.20;;;;;;5045556;28;20972;-77
2022/10/09 06:31:16;;;;;;;1.53;1.30;;;7.40;98.20;;;;;;5028043;28;20530;-77
2022/10/09 06:33:45;;;;;;;1.60;1.30;;;7.40;98.20;;;;;;5042412;28;20526;-78
2022/10/09 06:36:16;;;;;;;1.50;1.30;;;7.50;98.20;;;;;;5023935;28;20538;-78
2022/10/09 06:38:44;;;;;;;1.57;1.33;;;7.60;98.20;;;;;;5039039;28;20872;-78
2022/10/09 06:41:13;;;;;;;1.50;1.30;;;7.70;98.20;;;;;;5021758;28;20554;-77
2022/10/09 06:43:41;;;;;;;1.50;1.27;;;7.80;98.20;;;;;;5047313;28;20881;-78
2022/10/09 06:46:10;;;;;;;1.50;1.20;;;7.90;98.20;;;;;;5025990;28;20646;-77
2022/10/09 06:48:39;;;;;;;1.53;1.20;;;8.00;98.20;;;;;;5050742;28;20950;-78
2022/10/09 06:51:09;;;;;;;1.50;1.20;;;8.10;98.20;;;;;;5025101;28;20475;-78
2022/10/09 06:53:38;;;;;;;1.57;1.20;;;8.20;98.20;;;;;;5041903;28;20466;-78
2022/10/09 06:56:07;;;;;;;1.60;1.30;;;8.40;98.20;;;;;;5020477;28;20475;-78
2022/10/09 06:58:34;;;;;;;1.50;1.20;;;8.50;98.20;;;;;;5041765;28;20462;-78
2022/10/09 07:01:04;;;;;;;1.53;1.23;;;8.60;98.20;;;;;;5020498;28;20467;-78
2022/10/09 07:03:31;;;;;;;1.53;1.20;;;8.70;98.20;;;;;;5035615;28;20906;-81
2022/10/09 07:06:07;;;;;;;1.50;1.20;;;8.80;98.20;;;;;;5019651;28;20493;-80
2022/10/09 07:08:35;;;;;;;1.50;1.20;;;9.00;98.20;;;;;;5034065;28;20893;-78
2022/10/09 07:11:11;;;;;;;1.60;1.30;;;9.10;98.20;;;;;;5016067;28;20472;-78
2022/10/09 07:14:08;;;;;;;1.53;1.20;;;9.20;98.20;;;;;;5040963;28;20455;-79
2022/10/09 07:16:38;;;;;;;1.50;1.10;;;9.30;98.20;;;;;;5023772;28;20474;-79
2022/10/09 07:19:09;;;;;;;1.57;1.30;;;9.50;98.20;;;;;;5036482;28;20466;-79
2022/10/09 07:21:37;;;;;;;1.50;1.20;;;9.60;98.20;;;;;;5024574;28;20482;-79
2022/10/09 07:24:05;;;;;;;1.50;1.10;;;9.70;98.20;;;;;;5040324;28;20999;-79
2022/10/09 07:26:36;;;;;;;2.20;1.83;;;9.80;98.20;;;;;;5023248;28;20573;-80
2022/10/09 07:29:05;;;;;;;1.57;1.20;;;9.90;98.20;;;;;;5042897;28;20462;-78
2022/10/09 07:31:32;;;;;;;1.50;1.20;;;10.00;98.20;;;;;;5035217;28;20513;-77
2022/10/09 07:34:00;;;;;;;1.60;1.13;;;10.10;98.20;;;;;;5047834;28;20501;-77
2022/10/09 07:36:27;;;;;;;1.50;1.10;;;10.20;98.20;;;;;;5078741;22;20480;-76
2022/10/09 07:38:56;;;;;;;1.50;1.20;;;10.30;98.20;;;;;;5072794;28;20474;-76
2022/10/09 07:41:25;;;;;;;1.53;1.20;;;10.40;98.20;;;;;;5063078;28;20468;-77
2022/10/09 07:43:53;;;;;;;1.53;1.10;;;10.50;98.20;;;;;;5076046;28;20508;-75
2022/10/09 07:46:22;;;;;;;1.57;1.10;;;10.70;98.20;;;;;;5063437;28;20527;-77
2022/10/09 07:48:50;;;;;;;1.53;1.20;;;10.80;98.20;;;;;;5079873;28;20465;-77
2022/10/09 07:51:19;;;;;;;1.60;1.20;;;10.90;98.20;;;;;;5059472;28;20476;-76
2022/10/09 07:53:47;;;;;;;1.57;1.20;;;11.10;98.20;;;;;;5079877;28;20513;-78
2022/10/09 07:56:15;;;;;;;1.50;1.10;;;11.20;98.20;;;;;;5058077;28;20538;-77
2022/10/09 07:58:42;;;;;;;1.53;1.10;;;11.40;98.20;;;;;;5070027;28;20879;-76
2022/10/09 08:01:11;;;;;;;1.53;1.13;;;11.50;98.20;;;;;;5061436;28;20473;-77
2022/10/09 08:03:38;;;;;;;1.53;1.20;;;11.60;98.20;;;;;;5068352;28;20993;-79
2022/10/09 08:06:06;;;;;;;1.50;1.10;;;11.60;98.20;;;;;;5059230;28;20910;-77
2022/10/09 08:08:34;;;;;;;1.57;1.20;;;11.70;98.20;;;;;;5059929;28;20510;-77
2022/10/09 08:11:07;;;;;;;1.50;1.10;;;11.80;98.20;;;;;;5057876;28;20470;-76
2022/10/09 08:13:34;;;;;;;1.50;1.00;;;11.90;98.20;;;;;;5100728;28;20762;-76
2022/10/09 08:16:01;;;;;;;1.50;1.10;;;12.00;98.20;;;;;;5078327;28;20468;-76
2022/10/09 08:18:30;;;;;;;1.57;1.10;;;12.00;98.20;;;;;;5101930;28;20461;-76
2022/10/09 08:20:58;;;;;;;1.50;1.07;;;12.10;98.20;;;;;;5077533;28;20468;-77
2022/10/09 08:23:26;;;;;;;1.57;1.10;;;12.10;98.20;;;;;;5097030;28;20992;-78
2022/10/09 08:25:54;;;;;;;1.50;1.10;;;12.20;98.20;;;;;;5076602;28;20851;-77
2022/10/09 08:28:22;;;;;;;1.50;1.00;;;12.30;98.20;;;;;;5083171;28;20473;-79
2022/10/09 08:30:49;;;;;;;1.50;1.10;;;12.40;98.20;;;;;;5079513;28;20816;-78
2022/10/09 08:33:20;;;;;;;1.50;1.10;;;12.60;98.20;;;;;;5081144;28;20473;-78
2022/10/09 08:35:49;;;;;;;1.50;1.00;;;12.70;98.20;;;;;;5082173;28;20547;-79
2022/10/09 08:38:16;;;;;;;1.50;1.00;;;12.80;98.20;;;;;;5078825;28;20469;-80
2022/10/09 08:40:52;;;;;;;1.50;1.07;;;12.90;98.20;;;;;;5077399;28;20857;-79
2022/10/09 08:43:28;;;;;;;1.50;1.03;;;13.00;98.20;;;;;;5072488;28;20950;-80
2022/10/09 08:45:58;;;;;;;1.80;1.70;;;13.10;98.20;;;;;;5065584;28;20460;-79
2022/10/09 08:48:28;;;;;;;1.50;1.00;;;13.30;98.20;;;;;;5091561;28;20461;-80
2022/10/09 08:50:58;;;;;;;1.70;1.57;;;13.40;98.20;;;;;;5070822;28;20458;-80
2022/10/09 08:53:37;;;;;;;1.50;1.00;;;13.40;98.20;;;;;;5082280;28;20466;-79
2022/10/09 08:56:09;;;;;;;1.50;1.00;;;13.50;98.20;;;;;;5074719;28;20990;-79
2022/10/09 08:58:40;;;;;;;1.50;1.00;;;13.50;98.20;;;;;;5090792;27;20456;-80
2022/10/09 09:01:17;;;;;;;1.50;1.00;;;13.60;98.20;;;;;;5068320;28;20714;-79
2022/10/09 09:04:10;;;;;;;1.50;1.00;;;13.60;98.20;;;;;;5092754;28;20538;-80
2022/10/09 09:06:45;;;;;;;1.50;1.00;;;13.80;98.20;;;;;;5075359;28;21132;-81
2022/10/09 09:09:19;;;;;;;1.50;1.00;;;13.90;97.90;;;;;;5082869;28;20502;-81
2022/10/09 09:11:53;;;;;;;1.50;1.00;;;14.00;97.50;;;;;;5077103;28;20715;-81
2022/10/09 09:14:36;;;;;;;1.50;1.00;;;14.10;97.70;;;;;;5087849;28;21124;-81
2022/10/09 09:17:13;;;;;;;1.50;1.00;;;14.20;98.20;;;;;;5086629;28;20483;-82
2022/10/09 09:19:56;;;;;;;1.50;1.00;;;14.30;96.80;;;;;;5097483;28;20464;-81
2022/10/09 09:22:26;;;;;;;1.50;1.00;;;14.40;96.10;;;;;;5081916;28;20599;-81
2022/10/09 09:24:55;;;;;;;1.50;1.00;;;14.60;96.10;;;;;;5095790;28;20477;-82
2022/10/09 09:27:29;;;;;;;1.50;1.00;;;14.70;95.80;;;;;;5097157;27;20510;-81
2022/10/09 09:30:02;;;;;;;1.50;0.90;;;14.90;95.80;;;;;;5093636;27;20465;-82
2022/10/09 09:32:31;;;;;;;1.60;1.10;;;15.00;93.40;;;;;;5070783;28;20485;-81
2022/10/09 09:35:48;;;;;;;;;;;;;;;;;;;;;
2022/10/09 09:38:17;;;;;;;1.80;1.40;;;15.10;95.50;;;;;;5052441;28;21190;-79
2022/10/09 09:40:45;;;;;;;1.60;1.20;;;15.30;94.10;;;;;;5086371;28;20472;-80
2022/10/09 09:43:18;;;;;;;1.50;1.00;;;15.40;94.20;;;;;;5072791;28;20611;-79
2022/10/09 09:45:46;;;;;;;1.50;0.97;;;15.50;91.70;;;;;;5082492;28;20554;-81
2022/10/09 09:48:17;;;;;;;1.50;1.00;;;15.50;92.30;;;;;;5071958;28;20573;-79
2022/10/09 09:50:45;;;;;;;1.50;1.00;;;15.60;91.80;;;;;;5084713;28;20845;-82
2022/10/09 09:53:23;;;;;;;1.50;1.00;;;15.70;91.60;;;;;;5067211;28;20477;-80
2022/10/09 09:55:53;;;;;;;1.50;1.00;;;15.80;92.90;;;;;;5069409;28;20456;-79
2022/10/09 09:58:21;;;;;;;1.50;1.10;;;15.90;90.60;;;;;;5086007;28;20460;-81
2022/10/09 10:01:02;;;;;;;1.57;1.10;;;16.10;90.40;;;;;;5071856;28;21067;-81
2022/10/09 10:03:31;;;;;;;1.50;1.00;;;16.20;90.70;;;;;;5097179;28;20909;-80
2022/10/09 10:05:58;;;;;;;1.50;0.93;;;16.20;89.00;;;;;;5071294;28;20855;-81
2022/10/09 10:08:29;;;;;;;1.50;0.90;;;16.30;89.50;;;;;;5073788;28;20472;-81
2022/10/09 10:10:59;;;;;;;1.50;0.90;;;16.50;89.20;;;;;;5069416;28;20460;-81
2022/10/09 10:13:33;;;;;;;1.50;0.90;;;16.60;88.00;;;;;;5095080;28;20555;-80
2022/10/09 10:16:01;;;;;;;1.43;0.90;;;16.60;89.10;;;;;;5072994;28;20468;-80
2022/10/09 10:18:32;;;;;;;1.70;1.40;;;16.60;87.80;;;;;;5096132;28;20464;-80
2022/10/09 10:21:07;;;;;;;1.50;1.00;;;16.80;88.70;;;;;;5072059;28;20467;-81
2022/10/09 10:23:41;;;;;;;1.50;1.00;;;16.80;87.00;;;;;;5081433;28;21341;-81
2022/10/09 10:26:17;;;;;;;1.50;0.90;;;16.80;87.60;;;;;;5072165;28;20468;-79
2022/10/09 10:28:51;;;;;;;1.50;0.90;;;17.00;87.50;;;;;;5414919;22;20504;-81
2022/10/09 10:31:29;;;;;;;1.50;0.90;;;17.10;88.50;;;;;;5077555;28;20506;-80
2022/10/09 10:33:57;;;;;;;1.50;0.90;;;17.30;87.10;;;;;;5094695;28;20491;-80
2022/10/09 10:36:27;;;;;;;1.50;0.93;;;17.50;86.10;;;;;;5076025;28;20507;-81
2022/10/09 10:39:05;;;;;;;1.50;0.90;;;17.70;85.70;;;;;;5090664;28;20588;-80
2022/10/09 10:41:36;;;;;;;1.50;1.10;;;17.90;85.80;;;;;;5076298;28;20567;-79
2022/10/09 10:44:09;;;;;;;1.50;0.90;;;18.20;85.50;;;;;;5091324;28;20929;-79
2022/10/09 10:46:47;;;;;;;1.50;0.90;;;18.30;83.80;;;;;;5079090;28;21163;-79
2022/10/09 10:49:19;;;;;;;1.70;1.00;;;18.30;83.40;;;;;;5091199;28;20566;-79
2022/10/09 10:51:58;;;;;;;1.50;1.00;;;18.40;83.50;;;;;;5080016;28;20871;-78
2022/10/09 10:54:38;;;;;;;1.50;0.93;;;18.30;82.70;;;;;;5088792;28;20607;-78
2022/10/09 10:57:13;;;;;;;1.50;0.90;;;18.30;83.20;;;;;;5080737;28;20475;-78
2022/10/09 10:59:50;;;;;;;1.50;0.90;;;18.40;83.00;;;;;;5086451;28;21157;-79
2022/10/09 11:02:57;;;;;;;1.50;0.90;;;18.50;82.80;;;;;;5083939;28;20487;-77
2022/10/09 11:05:36;;;;;;;1.50;0.90;;;18.70;82.00;;;;;;5081364;28;21329;-79
2022/10/09 11:08:15;;;;;;;1.50;0.90;;;19.00;82.70;;;;;;5086784;28;20487;-79
2022/10/09 11:10:53;;;;;;;1.50;0.97;;;19.10;81.20;;;;;;5080675;28;20540;-79
2022/10/09 11:13:24;;;;;;;1.50;1.00;;;19.20;80.80;;;;;;5071238;28;20544;-80
2022/10/09 11:16:01;;;;;;;1.50;0.90;;;19.30;79.10;;;;;;5073371;28;20460;-79
2022/10/09 11:18:52;;;;;;;1.50;0.90;;;19.20;79.40;;;;;;5096079;28;20567;-79
2022/10/09 11:21:39;;;;;;;1.50;0.90;;;19.10;80.40;;;;;;5074223;28;20518;-78
2022/10/09 11:24:25;;;;;;;1.50;0.90;;;19.30;80.50;;;;;;5093487;28;20456;-77
2022/10/09 11:27:00;;;;;;;1.50;0.97;;;19.40;79.50;;;;;;5080838;28;21133;-78
2022/10/09 11:29:32;;;;;;;1.50;0.90;;;19.30;78.70;;;;;;5088775;28;20509;-79
2022/10/09 11:32:05;;;;;;;1.50;0.90;;;19.30;79.10;;;;;;5081701;28;20482;-78
2022/10/09 11:34:37;;;;;;;1.43;0.90;;;19.40;78.40;;;;;;5088649;28;20488;-80
2022/10/09 11:37:09;;;;;;;1.50;1.00;;;19.40;78.10;;;;;;5081338;28;20541;-79
2022/10/09 11:39:38;;;;;;;1.50;0.90;;;19.30;77.80;;;;;;5086405;28;20838;-78
2022/10/09 11:42:11;;;;;;;1.50;0.97;;;19.30;77.60;;;;;;5082120;28;20562;-80
2022/10/09 11:44:47;;;;;;;1.50;0.90;;;19.30;77.50;;;;;;5087959;28;20453;-82
2022/10/09 11:47:22;;;;;;;1.50;0.90;;;19.30;77.00;;;;;;5081802;28;20517;-79
2022/10/09 11:50:22;;;;;;;1.50;0.90;;;19.40;77.70;;;;;;5082194;28;20612;-80
2022/10/09 11:52:57;;;;;;;1.80;1.50;;;19.40;76.30;;;;;;5084086;28;20487;-78
2022/10/09 11:55:27;;;;;;;1.47;0.90;;;19.60;76.50;;;;;;5079414;28;20567;-78
2022/10/09 11:58:06;;;;;;;1.47;0.90;;;19.60;74.60;;;;;;5085544;28;20741;-79
2022/10/09 12:00:36;;;;;;;1.47;0.90;;;19.70;76.10;;;;;;5081678;28;20464;-78
2022/10/09 12:03:05;;;;;;;1.43;0.97;;;19.80;74.50;;;;;;5068294;28;20495;-79
2022/10/09 12:05:39;;;;;;;1.50;0.90;;;19.60;73.10;;;;;;5080380;28;20556;-79
2022/10/09 12:08:11;;;;;;;1.50;0.90;;;19.60;74.00;;;;;;5085930;28;20510;-80
2022/10/09 12:10:41;;;;;;;1.50;0.90;;;19.70;75.00;;;;;;5080429;28;20828;-80
2022/10/09 12:13:31;;;;;;;1.50;0.90;;;19.70;73.80;;;;;;5087188;28;20511;-80
2022/10/09 12:15:59;;;;;;;1.47;0.90;;;19.80;73.40;;;;;;5076118;28;20868;-80
2022/10/09 12:18:30;;;;;;;1.50;0.90;;;19.80;73.30;;;;;;5095943;28;20495;-79
2022/10/09 12:21:00;;;;;;;1.40;0.90;;;19.90;73.30;;;;;;5075988;28;20465;-78
2022/10/09 12:23:31;;;;;;;1.43;0.90;;;20.00;73.00;;;;;;5095709;28;20940;-80
2022/10/09 12:26:00;;;;;;;1.47;0.90;;;19.90;72.20;;;;;;5073639;28;20521;-81
2022/10/09 12:28:34;;;;;;;1.50;0.90;;;19.90;72.60;;;;;;5096302;28;20502;-79
2022/10/09 12:31:05;;;;;;;1.50;0.90;;;19.90;71.90;;;;;;5075018;28;20466;-80
2022/10/09 12:33:36;;;;;;;1.43;0.90;;;20.00;71.60;;;;;;5097208;28;20558;-79
2022/10/09 12:36:06;;;;;;;1.50;0.90;;;20.10;72.00;;;;;;5071564;28;20491;-80
2022/10/09 12:38:34;;;;;;;1.47;0.90;;;20.10;70.70;;;;;;5081529;28;20546;-79
2022/10/09 12:41:04;;;;;;;1.47;0.90;;;19.90;68.90;;;;;;5072723;28;20468;-79
2022/10/09 12:43:35;;;;;;;1.47;0.90;;;19.80;69.30;;;;;;5097483;28;20464;-79
2022/10/09 12:46:02;;;;;;;1.47;0.83;;;19.80;68.70;;;;;;5075456;28;20468;-79
2022/10/09 12:48:37;;;;;;;1.47;0.90;;;19.80;70.80;;;;;;5095470;28;20500;-79
2022/10/09 12:51:15;;;;;;;1.50;0.90;;;19.90;70.10;;;;;;5075370;28;20500;-79
2022/10/09 12:53:47;;;;;;;1.43;0.90;;;19.90;68.80;;;;;;5093655;28;20689;-78
2022/10/09 12:56:20;;;;;;;1.50;0.90;;;20.00;67.40;;;;;;5075122;27;20510;-79
2022/10/09 12:58:50;;;;;;;1.43;0.90;;;19.80;66.90;;;;;;5093760;28;20489;-78
2022/10/09 13:01:17;;;;;;;1.50;0.90;;;19.80;67.60;;;;;;5078484;27;20483;-78
2022/10/09 13:03:54;;;;;;;1.50;0.90;;;19.80;67.20;;;;;;5095533;28;20464;-78
2022/10/09 13:06:24;;;;;;;1.50;0.90;;;19.70;66.80;;;;;;5075476;28;20656;-79
2022/10/09 13:08:54;;;;;;;1.50;0.90;;;19.70;67.30;;;;;;5094712;28;20476;-78
2022/10/09 13:11:24;;;;;;;1.43;0.90;;;19.80;67.50;;;;;;5078112;28;21003;-78
2022/10/09 13:13:54;;;;;;;1.43;0.90;;;19.90;68.40;;;;;;5093158;28;20467;-78